createdAt,value
2022-10-16T00:01:07.439Z,22.69
2022-10-16T00:03:37.826Z,23.38
2022-10-16T00:06:07.342Z,23.42
2022-10-16T00:08:36.043Z,23.26
2022-10-16T00:11:06.427Z,23.22
2022-10-16T00:13:35.345Z,23.09
2022-10-16T00:16:05.538Z,22.72
2022-10-16T00:18:33.708Z,23.60
2022-10-16T00:21:04.797Z,22.75
2022-10-16T00:23:33.402Z,23.30
2022-10-16T00:26:03.522Z,23.21
2022-10-16T00:28:31.946Z,23.28
2022-10-16T00:31:00.775Z,23.42
2022-10-16T00:33:30.579Z,23.32
2022-10-16T00:36:00.117Z,23.34
2022-10-16T00:38:28.248Z,23.49
2022-10-16T00:40:56.865Z,23.45
2022-10-16T00:43:40.970Z,22.66
2022-10-16T00:46:15.654Z,23.22
2022-10-16T00:48:49.143Z,23.01
2022-10-16T00:51:17.672Z,23.78
2022-10-16T00:53:46.646Z,23.65
2022-10-16T00:56:15.134Z,23.67
2022-10-16T00:58:43.166Z,23.81
2022-10-16T01:01:11.579Z,23.75
2022-10-16T01:03:39.773Z,23.61
2022-10-16T01:06:18.492Z,23.00
2022-10-16T01:08:52.012Z,23.15
2022-10-16T01:11:25.892Z,22.88
2022-10-16T01:13:56.485Z,22.99
2022-10-16T01:16:32.032Z,23.00
2022-10-16T01:19:04.984Z,23.02
2022-10-16T01:21:38.785Z,22.97
2022-10-16T01:24:12.569Z,23.02
2022-10-16T01:26:56.834Z,22.68
2022-10-16T01:29:29.103Z,23.02
2022-10-16T01:31:59.769Z,23.40
2022-10-16T01:34:33.510Z,23.10
2022-10-16T01:37:05.184Z,23.47
2022-10-16T01:39:35.051Z,23.55
2022-10-16T01:42:07.325Z,23.35
2022-10-16T01:44:38.485Z,23.34
2022-10-16T01:47:06.677Z,22.39
2022-10-16T01:49:36.436Z,23.56
2022-10-16T01:52:08.170Z,23.54
2022-10-16T01:54:38.002Z,23.29
2022-10-16T01:57:08.492Z,23.44
2022-10-16T01:59:41.467Z,23.03
2022-10-16T02:02:12.286Z,23.17
2022-10-16T02:04:42.582Z,23.52
2022-10-16T02:07:11.176Z,23.58
2022-10-16T02:09:39.382Z,23.54
2022-10-16T02:12:12.507Z,23.29
2022-10-16T02:14:42.980Z,23.39
2022-10-16T02:17:16.717Z,22.95
2022-10-16T02:19:46.314Z,23.54
2022-10-16T02:22:18.274Z,23.15
2022-10-16T02:24:52.464Z,23.18
2022-10-16T02:27:27.706Z,23.04
2022-10-16T02:29:59.868Z,23.18
2022-10-16T02:32:32.778Z,23.38
2022-10-16T02:35:01.580Z,23.58
2022-10-16T02:37:30.534Z,23.89
2022-10-16T02:40:00.369Z,23.89
2022-10-16T02:42:35.502Z,23.32
2022-10-16T02:45:05.860Z,23.77
2022-10-16T02:47:34.232Z,23.95
2022-10-16T02:50:02.606Z,23.76
2022-10-16T02:52:30.871Z,24.11
2022-10-16T02:54:58.975Z,24.20
2022-10-16T02:57:27.505Z,24.42
2022-10-16T02:59:56.083Z,24.15
2022-10-16T03:02:25.794Z,24.03
2022-10-16T03:04:53.875Z,24.15
2022-10-16T03:07:22.440Z,24.08
2022-10-16T03:09:50.522Z,24.28
2022-10-16T03:12:19.039Z,24.41
2022-10-16T03:14:47.189Z,24.30
2022-10-16T03:17:17.949Z,24.57
2022-10-16T03:19:47.443Z,23.97
2022-10-16T03:22:15.872Z,24.73
2022-10-16T03:24:43.988Z,24.55
2022-10-16T03:27:12.541Z,24.48
2022-10-16T03:29:40.646Z,24.95
2022-10-16T03:32:09.126Z,24.74
2022-10-16T03:34:37.253Z,24.69
2022-10-16T03:37:07.058Z,24.29
2022-10-16T03:39:35.227Z,24.62
2022-10-16T03:42:03.709Z,24.64
2022-10-16T03:44:32.415Z,24.59
2022-10-16T03:47:00.883Z,24.78
2022-10-16T03:49:29.040Z,24.80
2022-10-16T03:51:57.418Z,24.45
2022-10-16T03:54:26.875Z,24.13
2022-10-16T03:56:55.328Z,24.77
2022-10-16T03:59:23.446Z,24.72
2022-10-16T04:01:51.854Z,24.49
2022-10-16T04:04:20.022Z,24.24
2022-10-16T04:06:48.504Z,24.75
2022-10-16T04:09:16.538Z,24.43
2022-10-16T04:11:46.288Z,24.33
2022-10-16T04:14:15.055Z,24.53
2022-10-16T04:16:43.288Z,24.57
2022-10-16T04:19:11.572Z,24.40
2022-10-16T04:21:39.920Z,24.31
2022-10-16T04:24:08.091Z,23.95
2022-10-16T04:26:36.400Z,24.09
2022-10-16T04:29:07.222Z,24.08
2022-10-16T04:31:35.629Z,23.89
2022-10-16T04:34:03.672Z,24.10
2022-10-16T04:36:32.096Z,23.83
2022-10-16T04:39:00.224Z,24.08
2022-10-16T04:41:28.584Z,23.94
2022-10-16T04:43:56.808Z,23.77
2022-10-16T04:46:26.646Z,23.37
2022-10-16T04:48:54.939Z,23.82
2022-10-16T04:51:23.185Z,24.02
2022-10-16T04:53:51.266Z,23.92
2022-10-16T04:56:19.511Z,24.03
2022-10-16T04:58:47.742Z,23.61
2022-10-16T05:01:16.202Z,23.72
2022-10-16T05:03:45.859Z,23.77
2022-10-16T05:06:14.129Z,23.72
2022-10-16T05:08:42.267Z,23.79
2022-10-16T05:11:10.618Z,24.05
2022-10-16T05:13:38.964Z,23.93
2022-10-16T05:16:08.086Z,23.47
2022-10-16T05:18:36.336Z,23.78
2022-10-16T05:21:06.783Z,23.29
2022-10-16T05:23:35.184Z,23.73
2022-10-16T05:26:03.435Z,23.91
2022-10-16T05:28:32.371Z,23.75
2022-10-16T05:31:00.758Z,23.62
2022-10-16T05:33:28.932Z,23.44
2022-10-16T05:35:57.215Z,23.35
2022-10-16T05:38:26.650Z,22.71
2022-10-16T05:40:55.509Z,23.03
2022-10-16T05:43:23.690Z,22.86
2022-10-16T05:45:58.754Z,22.13
2022-10-16T05:48:27.263Z,22.84
2022-10-16T05:50:59.481Z,22.37
2022-10-16T05:53:29.421Z,22.46
2022-10-16T05:55:58.320Z,22.51
2022-10-16T05:58:26.998Z,22.50
2022-10-16T06:00:56.596Z,22.23
2022-10-16T06:03:25.000Z,22.42
2022-10-16T06:05:53.466Z,22.18
2022-10-16T06:08:23.827Z,22.00
2022-10-16T06:11:04.286Z,20.75
2022-10-16T06:13:32.640Z,21.21
2022-10-16T06:16:02.683Z,20.83
2022-10-16T06:18:31.547Z,20.30
2022-10-16T06:21:00.288Z,19.68
2022-10-16T06:23:30.374Z,19.51
2022-10-16T06:26:08.423Z,18.30
2022-10-16T06:28:36.762Z,19.01
2022-10-16T06:31:08.343Z,18.83
2022-10-16T06:33:36.961Z,19.08
2022-10-16T06:36:06.195Z,18.94
2022-10-16T06:38:34.575Z,18.62
2022-10-16T06:41:02.936Z,18.13
2022-10-16T06:43:33.582Z,16.79
2022-10-16T06:46:02.373Z,15.56
2022-10-16T06:48:31.181Z,14.73
2022-10-16T06:51:00.681Z,12.86
2022-10-16T06:53:39.611Z,11.97
2022-10-16T06:56:09.927Z,11.07
2022-10-16T06:58:39.942Z,11.00
2022-10-16T07:01:09.101Z,10.76
2022-10-16T07:03:39.225Z,9.86
2022-10-16T07:06:09.399Z,9.40
2022-10-16T07:08:38.974Z,8.72
2022-10-16T07:11:08.678Z,8.18
2022-10-16T07:13:37.087Z,8.59
2022-10-16T07:16:11.676Z,8.02
2022-10-16T07:18:41.392Z,7.63
2022-10-16T07:21:10.811Z,7.14
2022-10-16T07:23:39.465Z,7.06
2022-10-16T07:26:08.581Z,8.16
2022-10-16T07:28:36.904Z,8.72
2022-10-16T07:31:05.856Z,9.64
2022-10-16T07:33:36.688Z,9.59
2022-10-16T07:36:05.591Z,10.09
2022-10-16T07:38:34.088Z,10.15
2022-10-16T07:41:03.502Z,9.50
2022-10-16T07:43:32.192Z,9.19
2022-10-16T07:46:02.603Z,9.09
2022-10-16T07:48:36.728Z,8.60
2022-10-16T07:51:06.918Z,8.27
2022-10-16T07:53:35.471Z,8.61
2022-10-16T07:56:04.991Z,8.78
2022-10-16T07:58:33.357Z,9.82
2022-10-16T08:01:05.093Z,10.51
2022-10-16T08:03:33.350Z,11.11
2022-10-16T08:06:03.514Z,11.05
2022-10-16T08:08:31.937Z,11.14
2022-10-16T08:11:00.428Z,10.33
2022-10-16T08:13:29.336Z,9.28
2022-10-16T08:15:57.631Z,8.41
2022-10-16T08:18:25.821Z,8.38
2022-10-16T08:20:57.975Z,8.34
2022-10-16T08:23:27.906Z,9.11
2022-10-16T08:25:56.631Z,9.50
2022-10-16T08:28:25.619Z,9.40
2022-10-16T08:30:53.956Z,8.91
2022-10-16T08:33:22.008Z,8.11
2022-10-16T08:35:54.621Z,7.34
2022-10-16T08:38:23.109Z,6.63
2022-10-16T08:40:53.824Z,5.53
2022-10-16T08:43:29.203Z,4.16
2022-10-16T08:46:11.572Z,4.31
2022-10-16T08:48:45.650Z,5.14
2022-10-16T08:51:21.047Z,5.47
2022-10-16T08:53:53.184Z,5.64
2022-10-16T08:56:23.343Z,5.99
2022-10-16T08:58:55.117Z,6.92
2022-10-16T09:01:31.480Z,6.90
2022-10-16T09:04:45.247Z,6.63
2022-10-16T09:07:17.523Z,8.00
2022-10-16T09:09:55.601Z,8.40
2022-10-16T09:12:30.102Z,8.88
2022-10-16T09:15:05.117Z,8.66
2022-10-16T09:17:40.402Z,8.44
2022-10-16T09:20:26.583Z,8.45
2022-10-16T09:22:58.278Z,8.26
2022-10-16T09:25:26.651Z,8.33
2022-10-16T09:27:56.664Z,7.57
2022-10-16T09:30:25.217Z,6.57
2022-10-16T09:32:55.022Z,5.83
2022-10-16T09:35:25.028Z,5.94
2022-10-16T09:37:55.991Z,5.77
2022-10-16T09:40:29.114Z,5.90
2022-10-16T09:43:03.868Z,6.56
2022-10-16T09:45:32.007Z,6.60
2022-10-16T09:48:01.426Z,7.24
2022-10-16T09:50:30.577Z,7.29
2022-10-16T09:53:07.840Z,7.49
2022-10-16T09:55:36.172Z,7.59
2022-10-16T09:58:15.475Z,7.68
2022-10-16T10:00:44.079Z,8.87
2022-10-16T10:03:13.104Z,8.88
2022-10-16T10:05:41.851Z,9.29
2022-10-16T10:08:18.018Z,9.16
2022-10-16T10:10:50.550Z,9.64
2022-10-16T10:13:22.051Z,9.98
2022-10-16T10:15:50.302Z,10.39
2022-10-16T10:18:20.973Z,10.46
2022-10-16T10:20:59.774Z,9.97
2022-10-16T10:23:29.499Z,10.55
2022-10-16T10:25:59.959Z,10.67
2022-10-16T10:28:49.475Z,10.94
2022-10-16T10:31:24.363Z,11.64
2022-10-16T10:33:56.690Z,12.02
2022-10-16T10:36:30.336Z,12.03
2022-10-16T10:39:00.682Z,12.52
2022-10-16T10:41:41.976Z,12.05
2022-10-16T10:44:17.804Z,12.28
2022-10-16T10:46:51.112Z,12.01
2022-10-16T10:49:30.842Z,11.54
2022-10-16T10:52:06.348Z,11.71
2022-10-16T10:54:41.104Z,12.06
2022-10-16T10:57:13.031Z,12.04
2022-10-16T10:59:57.165Z,12.03
2022-10-16T11:02:29.246Z,12.22
2022-10-16T11:05:17.506Z,12.11
2022-10-16T11:07:50.106Z,12.58
2022-10-16T11:10:25.978Z,12.83
2022-10-16T11:12:57.790Z,12.89
2022-10-16T11:15:31.263Z,12.45
2022-10-16T11:18:02.700Z,12.89
2022-10-16T11:20:34.372Z,12.57
2022-10-16T11:23:04.877Z,12.16
2022-10-16T11:25:34.877Z,11.92
2022-10-16T11:28:06.121Z,11.97
2022-10-16T11:30:36.691Z,11.58
2022-10-16T11:33:22.546Z,12.02
2022-10-16T11:35:54.103Z,12.19
2022-10-16T11:38:28.548Z,12.03
2022-10-16T11:41:00.458Z,12.20
2022-10-16T11:43:31.672Z,12.30
2022-10-16T11:46:06.551Z,12.10
2022-10-16T11:48:41.752Z,12.05
2022-10-16T11:51:16.343Z,12.35
2022-10-16T11:53:49.809Z,12.32
2022-10-16T11:56:20.193Z,13.04
2022-10-16T11:58:57.010Z,12.73
2022-10-16T12:01:31.380Z,13.25
2022-10-16T12:04:14.561Z,13.22
2022-10-16T12:06:45.859Z,13.68
2022-10-16T12:09:19.396Z,13.63
2022-10-16T12:11:47.709Z,14.19
2022-10-16T12:14:42.874Z,13.49
2022-10-16T12:17:30.043Z,13.55
2022-10-16T12:20:03.400Z,13.95
2022-10-16T12:22:32.569Z,14.52
2022-10-16T12:25:00.991Z,14.04
2022-10-16T12:27:31.768Z,13.97
2022-10-16T12:30:01.491Z,13.98
2022-10-16T12:32:49.865Z,13.40
2022-10-16T12:35:22.738Z,13.50
2022-10-16T12:37:51.591Z,13.43
2022-10-16T12:40:28.863Z,13.44
2022-10-16T12:42:57.270Z,14.00
2022-10-16T12:45:32.142Z,14.09
2022-10-16T12:48:03.083Z,14.28
2022-10-16T12:50:36.711Z,14.01
2022-10-16T12:53:07.023Z,14.46
2022-10-16T12:55:46.150Z,14.26
2022-10-16T12:58:40.276Z,14.50
2022-10-16T13:01:14.711Z,15.46
2022-10-16T13:04:26.431Z,14.66
2022-10-16T13:06:55.548Z,15.15
2022-10-16T13:09:39.092Z,15.35
2022-10-16T13:12:20.088Z,15.12
2022-10-16T13:15:00.652Z,14.66
2022-10-16T13:17:34.339Z,15.78
2022-10-16T13:20:11.644Z,15.84
2022-10-16T13:22:45.576Z,15.45
2022-10-16T13:25:24.772Z,15.79
2022-10-16T13:27:57.071Z,15.62
2022-10-16T13:30:30.648Z,16.18
2022-10-16T13:33:02.364Z,16.30
2022-10-16T13:35:34.917Z,16.08
2022-10-16T13:38:07.960Z,15.96
2022-10-16T13:40:36.410Z,16.87
2022-10-16T13:43:04.707Z,16.89
2022-10-16T13:45:33.117Z,17.10
2022-10-16T13:48:05.564Z,16.35
2022-10-16T13:50:35.341Z,16.53
2022-10-16T13:53:07.313Z,16.44
2022-10-16T13:55:35.878Z,17.00
2022-10-16T13:58:09.189Z,16.64
2022-10-16T14:03:09.115Z,16.87
2022-10-16T14:05:50.729Z,16.47
2022-10-16T14:08:18.938Z,17.39
2022-10-16T14:10:50.624Z,17.11
2022-10-16T14:13:22.138Z,17.19
2022-10-16T14:15:52.136Z,17.03
2022-10-16T14:18:22.987Z,17.17
2022-10-16T14:20:52.715Z,16.10
2022-10-16T14:23:23.561Z,17.31
2022-10-16T14:25:52.002Z,17.25
2022-10-16T14:28:21.260Z,17.34
2022-10-16T14:30:54.841Z,16.65
2022-10-16T14:33:25.518Z,17.22
2022-10-16T14:36:05.293Z,16.59
2022-10-16T14:38:34.055Z,16.83
2022-10-16T14:41:02.772Z,16.92
2022-10-16T14:43:35.098Z,16.50
2022-10-16T14:46:05.066Z,16.54
2022-10-16T14:48:33.525Z,16.60
2022-10-16T14:51:03.271Z,16.57
2022-10-16T14:53:31.830Z,16.81
2022-10-16T14:56:00.309Z,17.16
2022-10-16T14:58:30.245Z,17.33
2022-10-16T15:00:58.779Z,17.62
2022-10-16T15:03:27.023Z,17.12
2022-10-16T15:05:55.540Z,17.48
2022-10-16T15:08:25.150Z,17.54
2022-10-16T15:10:53.947Z,17.30
2022-10-16T15:13:22.125Z,17.46
2022-10-16T15:15:50.951Z,17.57
2022-10-16T15:18:21.519Z,17.92
2022-10-16T15:20:51.905Z,17.59
2022-10-16T15:25:55.733Z,17.51
2022-10-16T15:28:25.355Z,18.13
2022-10-16T15:30:55.117Z,17.96
2022-10-16T15:33:24.869Z,18.17
2022-10-16T15:35:54.255Z,18.37
2022-10-16T15:38:23.914Z,18.17
2022-10-16T15:40:52.563Z,18.60
2022-10-16T15:43:22.351Z,18.18
2022-10-16T15:46:01.405Z,18.15
2022-10-16T15:48:29.962Z,18.71
2022-10-16T15:50:58.338Z,18.82
2022-10-16T15:53:26.672Z,18.88
2022-10-16T15:55:55.209Z,18.83
2022-10-16T15:58:25.966Z,18.94
2022-10-16T16:00:58.133Z,18.94
2022-10-16T16:03:26.474Z,19.25
2022-10-16T16:05:55.018Z,19.30
2022-10-16T16:08:23.326Z,19.72
2022-10-16T16:11:00.937Z,18.94
2022-10-16T16:13:30.786Z,19.06
2022-10-16T16:15:59.130Z,19.77
2022-10-16T16:18:27.326Z,19.85
2022-10-16T16:20:55.832Z,20.01
2022-10-16T16:23:27.038Z,19.73
2022-10-16T16:26:07.050Z,19.02
2022-10-16T16:28:37.009Z,19.62
2022-10-16T16:31:05.869Z,19.93
2022-10-16T16:33:34.679Z,19.96
2022-10-16T16:36:08.294Z,20.07
2022-10-16T16:38:38.731Z,20.21
2022-10-16T16:41:14.001Z,19.46
2022-10-16T16:43:43.967Z,19.79
2022-10-16T16:46:13.048Z,19.93
2022-10-16T16:48:41.944Z,20.02
2022-10-16T16:51:16.187Z,20.30
2022-10-16T16:53:44.761Z,20.22
2022-10-16T16:56:13.123Z,20.36
2022-10-16T16:58:41.417Z,20.51
2022-10-16T17:01:20.993Z,20.48
2022-10-16T17:03:53.365Z,20.78
2022-10-16T17:06:23.141Z,20.82
2022-10-16T17:08:51.923Z,20.89
2022-10-16T17:11:21.989Z,20.76
2022-10-16T17:13:53.981Z,20.79
2022-10-16T17:16:29.432Z,20.55
2022-10-16T17:18:57.847Z,20.91
2022-10-16T17:21:27.044Z,20.73
2022-10-16T17:23:55.520Z,20.79
2022-10-16T17:26:23.886Z,20.86
2022-10-16T17:28:54.041Z,20.83
2022-10-16T17:31:23.904Z,20.95
2022-10-16T17:33:53.608Z,20.90
2022-10-16T17:36:22.887Z,21.29
2022-10-16T17:38:51.670Z,21.33
2022-10-16T17:41:21.937Z,21.10
2022-10-16T17:43:51.477Z,21.21
2022-10-16T17:46:21.418Z,20.88
2022-10-16T17:48:51.671Z,20.85
2022-10-16T17:51:24.561Z,20.77
2022-10-16T17:53:53.963Z,21.00
2022-10-16T17:56:23.112Z,21.15
2022-10-16T17:58:52.051Z,21.24
2022-10-16T18:01:22.558Z,21.14
2022-10-16T18:03:52.339Z,21.29
2022-10-16T18:06:23.419Z,21.08
2022-10-16T18:08:52.126Z,21.53
2022-10-16T18:11:20.810Z,21.57
2022-10-16T18:13:49.078Z,21.53
2022-10-16T18:16:17.463Z,21.67
2022-10-16T18:18:45.982Z,21.68
2022-10-16T18:21:15.949Z,21.65
2022-10-16T18:23:50.913Z,21.54
2022-10-16T18:26:21.237Z,21.78
2022-10-16T18:28:51.163Z,21.70
2022-10-16T18:31:20.021Z,21.77
2022-10-16T18:33:50.764Z,21.82
2022-10-16T18:36:20.780Z,21.41
2022-10-16T18:38:50.928Z,21.47
2022-10-16T18:41:19.836Z,21.87
2022-10-16T18:43:47.970Z,22.06
2022-10-16T18:46:17.912Z,21.90
2022-10-16T18:48:47.055Z,22.15
2022-10-16T18:51:18.719Z,22.01
2022-10-16T18:53:50.356Z,21.98
2022-10-16T18:56:21.529Z,21.73
2022-10-16T18:58:50.103Z,22.08
2022-10-16T19:01:21.712Z,21.92
2022-10-16T19:03:50.627Z,22.03
2022-10-16T19:06:19.121Z,22.16
2022-10-16T19:08:47.438Z,22.63
2022-10-16T19:11:17.829Z,22.37
2022-10-16T19:13:48.836Z,22.02
2022-10-16T19:16:21.037Z,22.51
2022-10-16T19:18:50.400Z,22.22
2022-10-16T19:21:18.966Z,22.28
2022-10-16T19:23:48.350Z,22.35
2022-10-16T19:26:18.271Z,22.16
2022-10-16T19:28:48.237Z,22.41
2022-10-16T19:31:18.521Z,22.51
2022-10-16T19:33:47.411Z,22.65
2022-10-16T19:36:17.360Z,22.31
2022-10-16T19:38:46.971Z,22.47
2022-10-16T19:41:17.032Z,22.41
2022-10-16T19:43:45.781Z,22.56
2022-10-16T19:46:17.465Z,22.09
2022-10-16T19:48:46.312Z,22.60
2022-10-16T19:51:17.135Z,22.42
2022-10-16T19:53:45.602Z,22.62
2022-10-16T19:56:14.665Z,22.64
2022-10-16T19:58:43.003Z,22.84
2022-10-16T20:01:11.714Z,23.06
2022-10-16T20:03:41.580Z,22.95
2022-10-16T20:06:10.661Z,22.77
2022-10-16T20:08:40.069Z,22.86
2022-10-16T20:11:12.309Z,22.50
2022-10-16T20:13:41.605Z,23.05
2022-10-16T20:16:12.145Z,23.06
2022-10-16T20:18:42.098Z,22.51
2022-10-16T20:21:11.934Z,22.83
2022-10-16T20:23:40.302Z,22.95
2022-10-16T20:26:11.593Z,23.07
2022-10-16T20:28:40.245Z,21.36
2022-10-16T20:31:11.246Z,22.74
2022-10-16T20:33:39.630Z,22.81
2022-10-16T20:36:12.202Z,22.42
2022-10-16T20:38:40.933Z,23.19
2022-10-16T20:41:10.219Z,22.92
2022-10-16T20:46:09.948Z,21.76
2022-10-16T20:48:41.231Z,23.04
2022-10-16T20:51:15.383Z,22.52
2022-10-16T20:53:44.030Z,23.34
2022-10-16T20:56:12.808Z,23.50
2022-10-16T20:58:42.108Z,23.23
2022-10-16T21:01:12.659Z,22.89
2022-10-16T21:03:41.181Z,23.32
2022-10-16T21:06:11.396Z,22.73
2022-10-16T21:08:42.914Z,22.50
2022-10-16T21:11:13.031Z,22.70
2022-10-16T21:13:41.461Z,23.13
2022-10-16T21:16:10.540Z,23.48
2022-10-16T21:18:44.091Z,23.13
2022-10-16T21:21:20.817Z,22.59
2022-10-16T21:23:50.838Z,23.00
2022-10-16T21:26:23.396Z,23.58
2022-10-16T21:28:51.846Z,23.52
2022-10-16T21:31:21.521Z,22.98
2022-10-16T21:33:50.135Z,23.74
2022-10-16T21:36:19.891Z,23.78
2022-10-16T21:38:48.657Z,24.09
2022-10-16T21:41:20.323Z,23.59
2022-10-16T21:43:48.942Z,24.16
2022-10-16T21:46:18.652Z,23.70
2022-10-16T21:48:47.252Z,24.19
2022-10-16T21:51:16.455Z,24.08
2022-10-16T21:53:44.612Z,24.20
2022-10-16T21:56:18.957Z,23.59
2022-10-16T21:58:47.388Z,24.12
2022-10-16T22:01:17.630Z,23.87
2022-10-16T22:03:46.791Z,23.93
2022-10-16T22:06:16.656Z,24.05
2022-10-16T22:08:46.353Z,24.03
2022-10-16T22:11:18.481Z,23.88
2022-10-16T22:13:54.198Z,23.52
2022-10-16T22:16:26.553Z,23.98
2022-10-16T22:18:55.633Z,24.24
2022-10-16T22:21:24.508Z,23.94
2022-10-16T22:23:52.896Z,24.07
2022-10-16T22:26:21.272Z,23.90
2022-10-16T22:28:50.908Z,23.73
2022-10-16T22:31:21.248Z,23.81
2022-10-16T22:33:49.550Z,24.04
2022-10-16T22:36:17.802Z,24.18
2022-10-16T22:38:46.257Z,24.11
2022-10-16T22:41:15.991Z,23.66
2022-10-16T22:43:45.718Z,23.90
2022-10-16T22:46:17.139Z,23.31
2022-10-16T22:48:46.036Z,24.10
2022-10-16T22:51:16.909Z,23.99
2022-10-16T22:53:46.433Z,23.95
2022-10-16T22:56:15.668Z,23.92
2022-10-16T22:58:44.033Z,24.29
2022-10-16T23:01:18.661Z,24.20
2022-10-16T23:03:47.020Z,24.38
2022-10-16T23:06:15.776Z,24.38
2022-10-16T23:08:44.165Z,24.41
2022-10-16T23:11:13.967Z,24.16
2022-10-16T23:13:45.643Z,24.39
2022-10-16T23:16:16.993Z,23.75
2022-10-16T23:18:45.975Z,24.32
2022-10-16T23:21:15.909Z,24.56
2022-10-16T23:23:44.408Z,24.45
2022-10-16T23:26:14.353Z,24.35
2022-10-16T23:28:42.772Z,24.77
2022-10-16T23:31:11.440Z,24.94
2022-10-16T23:33:41.274Z,24.72
2022-10-16T23:36:11.450Z,24.65
2022-10-16T23:38:39.796Z,24.72
2022-10-16T23:41:08.324Z,24.62
2022-10-16T23:43:37.035Z,24.55
2022-10-16T23:46:06.187Z,24.46
2022-10-16T23:48:34.399Z,24.60
2022-10-16T23:51:04.148Z,24.65
2022-10-16T23:53:32.287Z,24.86
2022-10-16T23:56:00.749Z,24.38
2022-10-16T23:58:28.808Z,24.39
